createdAt,value
2022-09-03T00:00:56.804Z,100846.41
2022-09-03T00:03:55.319Z,100840.84
2022-09-03T00:06:39.383Z,100846.31
2022-09-03T00:09:17.425Z,100843.88
2022-09-03T00:11:46.240Z,100852.31
2022-09-03T00:14:44.332Z,100842.63
2022-09-03T00:17:29.220Z,100846.78
2022-09-03T00:20:06.535Z,100849.53
2022-09-03T00:22:40.790Z,100841.94
2022-09-03T00:25:15.309Z,100841.91
2022-09-03T00:27:47.216Z,100844.38
2022-09-03T00:30:18.566Z,100847.94
2022-09-03T00:33:14.277Z,100850.25
2022-09-03T00:35:55.310Z,100849.66
2022-09-03T00:38:24.473Z,100853.13
2022-09-03T00:41:22.285Z,100850.84
2022-09-03T00:44:06.150Z,100857.13
2022-09-03T00:46:42.981Z,100850.97
2022-09-03T00:49:47.186Z,100861.28
2022-09-03T00:52:30.667Z,100863.91
2022-09-03T00:55:27.412Z,100859.88
2022-09-03T00:58:21.787Z,100857.16
2022-09-03T01:00:53.958Z,100858.97
2022-09-03T01:03:27.441Z,100866.69
2022-09-03T01:06:04.630Z,100860.38
2022-09-03T01:09:03.510Z,100859.34
2022-09-03T01:11:38.022Z,100861.56
2022-09-03T01:14:40.197Z,100870.19
2022-09-03T01:17:22.690Z,100856.63
2022-09-03T01:20:03.986Z,100863.28
2022-09-03T01:22:49.655Z,100868.66
2022-09-03T01:25:58.272Z,100870.31
2022-09-03T01:29:08.571Z,100869.41
2022-09-03T01:32:16.351Z,100867.50
2022-09-03T01:34:59.350Z,100874.72
2022-09-03T01:37:51.155Z,100868.78
2022-09-03T01:40:30.416Z,100876.81
2022-09-03T01:43:10.752Z,100886.44
2022-09-03T01:46:03.655Z,100883.53
2022-09-03T01:48:48.796Z,100891.19
2022-09-03T01:51:25.058Z,100887.25
2022-09-03T01:54:26.758Z,100888.13
2022-09-03T01:57:37.245Z,100884.09
2022-09-03T02:00:14.545Z,100879.69
2022-09-03T02:02:48.438Z,100882.19
2022-09-03T02:05:19.349Z,100879.88
2022-09-03T02:08:11.796Z,100882.94
2022-09-03T02:10:45.419Z,100880.59
2022-09-03T02:13:21.472Z,100892.50
2022-09-03T02:15:53.854Z,100891.03
2022-09-03T02:18:27.874Z,100886.53
2022-09-03T02:20:57.755Z,100882.34
2022-09-03T02:23:27.686Z,100886.03
2022-09-03T02:26:00.950Z,100877.59
2022-09-03T02:28:33.950Z,100892.56
2022-09-03T02:31:02.818Z,100893.31
2022-09-03T02:33:36.671Z,100893.09
2022-09-03T02:36:08.670Z,100893.81
2022-09-03T02:38:37.596Z,100892.44
2022-09-03T02:41:06.346Z,100894.75
2022-09-03T02:43:56.318Z,100893.25
2022-09-03T02:46:30.645Z,100899.16
2022-09-03T02:48:59.192Z,100900.75
2022-09-03T02:51:27.681Z,100906.84
2022-09-03T02:53:56.216Z,100905.97
2022-09-03T02:56:29.031Z,100910.25
2022-09-03T02:58:58.226Z,100912.03
2022-09-03T03:01:27.300Z,100920.06
2022-09-03T03:03:55.805Z,100917.06
2022-09-03T03:06:24.425Z,100928.84
2022-09-03T03:08:53.361Z,100940.00
2022-09-03T03:11:22.388Z,100933.56
2022-09-03T03:13:50.870Z,100934.25
2022-09-03T03:16:19.928Z,100945.16
2022-09-03T03:18:48.624Z,100958.66
2022-09-03T03:21:19.188Z,100955.09
2022-09-03T03:23:47.835Z,100952.59
2022-09-03T03:26:21.916Z,100953.16
2022-09-03T03:28:51.995Z,100961.50
2022-09-03T03:31:23.607Z,100958.16
2022-09-03T03:33:56.670Z,100964.84
2022-09-03T03:36:27.829Z,100978.75
2022-09-03T03:38:58.270Z,100979.97
2022-09-03T03:41:30.251Z,100982.69
2022-09-03T03:44:01.558Z,100989.13
2022-09-03T03:46:41.309Z,100981.25
2022-09-03T03:49:11.562Z,100999.28
2022-09-03T03:51:41.951Z,100997.53
2022-09-03T03:54:10.475Z,101001.31
2022-09-03T03:56:41.471Z,100998.94
2022-09-03T03:59:10.235Z,101008.31
2022-09-03T04:01:38.834Z,101000.34
2022-09-03T04:04:07.504Z,101008.63
2022-09-03T04:06:35.969Z,101009.84
2022-09-03T04:09:04.795Z,101015.22
2022-09-03T04:11:33.622Z,101012.72
2022-09-03T04:14:03.870Z,101018.31
2022-09-03T04:16:34.020Z,101021.25
2022-09-03T04:19:02.705Z,101013.38
2022-09-03T04:21:32.516Z,101027.06
2022-09-03T04:24:01.014Z,101029.13
2022-09-03T04:26:34.725Z,101035.69
2022-09-03T04:29:08.469Z,101032.84
2022-09-03T04:31:39.035Z,101039.63
2022-09-03T04:34:08.560Z,101041.97
2022-09-03T04:36:38.589Z,101048.63
2022-09-03T04:39:07.244Z,101054.13
2022-09-03T04:41:36.001Z,101059.88
2022-09-03T04:44:04.619Z,101060.84
2022-09-03T04:46:34.379Z,101066.66
2022-09-03T04:49:03.511Z,101066.16
2022-09-03T04:51:32.884Z,101070.81
2022-09-03T04:54:03.229Z,101077.06
2022-09-03T04:56:39.504Z,101085.44
2022-09-03T04:59:10.276Z,101087.66
2022-09-03T05:01:40.470Z,101095.47
2022-09-03T05:04:09.790Z,101103.91
2022-09-03T05:06:39.034Z,101104.03
2022-09-03T05:09:08.149Z,101113.94
2022-09-03T05:11:36.687Z,101108.72
2022-09-03T05:14:07.042Z,101112.41
2022-09-03T05:16:35.967Z,101113.53
2022-09-03T05:19:07.050Z,101110.41
2022-09-03T05:21:38.208Z,101114.53
2022-09-03T05:24:07.230Z,101119.72
2022-09-03T05:26:39.664Z,101114.88
2022-09-03T05:29:09.362Z,101116.03
2022-09-03T05:31:41.394Z,101116.13
2022-09-03T05:34:16.437Z,101117.94
2022-09-03T05:36:47.996Z,101109.09
2022-09-03T05:39:16.625Z,101110.47
2022-09-03T05:41:45.330Z,101124.34
2022-09-03T05:44:13.890Z,101122.69
2022-09-03T05:46:42.395Z,101139.03
2022-09-03T05:49:12.610Z,101133.06
2022-09-03T05:51:41.204Z,101134.38
2022-09-03T05:54:10.790Z,101134.50
2022-09-03T05:56:43.710Z,101147.72
2022-09-03T05:59:12.265Z,101140.72
2022-09-03T06:01:50.216Z,101145.13
2022-09-03T06:04:21.485Z,101143.41
2022-09-03T06:06:50.914Z,101149.47
2022-09-03T06:09:23.157Z,101153.19
2022-09-03T06:11:52.814Z,101148.09
2022-09-03T06:14:23.229Z,101149.91
2022-09-03T06:16:53.813Z,101159.13
2022-09-03T06:19:22.371Z,101158.72
2022-09-03T06:21:51.231Z,101161.00
2022-09-03T06:24:25.723Z,101158.47
2022-09-03T06:26:57.837Z,101162.47
2022-09-03T06:29:26.509Z,101157.09
2022-09-03T06:31:55.231Z,101157.25
2022-09-03T06:34:27.851Z,101151.19
2022-09-03T06:36:56.461Z,101157.59
2022-09-03T06:39:25.691Z,101147.78
2022-09-03T06:41:54.581Z,101156.81
2022-09-03T06:44:23.040Z,101156.16
2022-09-03T06:46:54.564Z,101157.94
2022-09-03T06:49:23.990Z,101155.84
2022-09-03T06:51:52.420Z,101153.00
2022-09-03T06:54:20.935Z,101159.34
2022-09-03T06:56:49.314Z,101159.34
2022-09-03T06:59:17.750Z,101153.97
2022-09-03T07:01:46.993Z,101162.03
2022-09-03T07:04:19.223Z,101164.81
2022-09-03T07:06:48.322Z,101161.41
2022-09-03T07:09:19.323Z,101156.31
2022-09-03T07:11:48.835Z,101153.03
2022-09-03T07:14:22.384Z,101154.25
2022-09-03T07:16:51.709Z,101162.63
2022-09-03T07:19:20.191Z,101163.94
2022-09-03T07:21:50.498Z,101159.00
2022-09-03T07:24:20.830Z,101155.59
2022-09-03T07:26:50.388Z,101147.75
2022-09-03T07:29:22.714Z,101147.84
2022-09-03T07:31:53.210Z,101147.91
2022-09-03T07:34:25.364Z,101147.22
2022-09-03T07:36:55.104Z,101144.00
2022-09-03T07:39:23.776Z,101145.03
2022-09-03T07:41:52.417Z,101142.44
2022-09-03T07:44:21.354Z,101139.97
2022-09-03T07:46:52.070Z,101138.19
2022-09-03T07:49:22.876Z,101137.44
2022-09-03T07:51:53.348Z,101135.72
2022-09-03T07:54:22.994Z,101133.94
2022-09-03T07:56:51.549Z,101129.63
2022-09-03T07:59:21.469Z,101144.06
2022-09-03T08:01:50.229Z,101132.78
2022-09-03T08:04:18.666Z,101145.44
2022-09-03T08:06:47.232Z,101141.09
2022-09-03T08:09:15.719Z,101140.31
2022-09-03T08:11:45.454Z,101149.22
2022-09-03T08:14:15.457Z,101151.09
2022-09-03T08:16:49.121Z,101150.25
2022-09-03T08:19:19.455Z,101146.78
2022-09-03T08:21:48.155Z,101145.97
2022-09-03T08:24:19.077Z,101142.44
2022-09-03T08:26:51.822Z,101145.31
2022-09-03T08:29:22.569Z,101155.13
2022-09-03T08:31:51.612Z,101153.41
2022-09-03T08:34:20.801Z,101153.41
2022-09-03T08:36:50.112Z,101155.22
2022-09-03T08:39:18.678Z,101156.28
2022-09-03T08:41:53.542Z,101162.66
2022-09-03T08:44:48.350Z,101153.84
2022-09-03T08:47:35.505Z,101150.19
2022-09-03T08:50:10.140Z,101161.06
2022-09-03T08:52:41.639Z,101159.50
2022-09-03T08:55:18.069Z,101155.97
2022-09-03T08:58:03.389Z,101155.97
2022-09-03T09:00:43.871Z,101153.47
2022-09-03T09:03:31.392Z,101157.94
2022-09-03T09:06:27.395Z,101157.25
2022-09-03T09:09:22.265Z,101153.75
2022-09-03T09:11:56.829Z,101149.50
2022-09-03T09:14:40.191Z,101155.81
2022-09-03T09:17:17.470Z,101163.94
2022-09-03T09:20:24.995Z,101157.88
2022-09-03T09:23:10.231Z,101158.81
2022-09-03T09:25:55.389Z,101155.19
2022-09-03T09:28:26.909Z,101149.06
2022-09-03T09:30:58.431Z,101158.00
2022-09-03T09:33:27.035Z,101149.91
2022-09-03T09:35:57.470Z,101150.78
2022-09-03T09:38:34.170Z,101155.28
2022-09-03T09:41:12.990Z,101159.69
2022-09-03T09:43:42.435Z,101161.66
2022-09-03T09:46:17.177Z,101159.06
2022-09-03T09:48:52.830Z,101152.22
2022-09-03T09:51:23.549Z,101150.72
2022-09-03T09:54:21.311Z,101153.78
2022-09-03T09:57:04.835Z,101154.72
2022-09-03T09:59:39.230Z,101152.06
2022-09-03T10:02:13.816Z,101156.56
2022-09-03T10:04:51.671Z,101154.72
2022-09-03T10:07:34.430Z,101150.31
2022-09-03T10:10:21.150Z,101148.50
2022-09-03T10:13:20.505Z,101144.03
2022-09-03T10:16:05.042Z,101143.06
2022-09-03T10:19:17.610Z,101145.13
2022-09-03T10:21:52.479Z,101140.94
2022-09-03T10:24:31.712Z,101143.84
2022-09-03T10:27:00.350Z,101136.88
2022-09-03T10:29:31.070Z,101141.44
2022-09-03T10:32:24.194Z,101139.88
2022-09-03T10:35:09.949Z,101148.91
2022-09-03T10:37:52.510Z,101149.00
2022-09-03T10:40:21.984Z,101142.84
2022-09-03T10:43:01.794Z,101150.09
2022-09-03T10:46:07.317Z,101137.81
2022-09-03T10:48:47.549Z,101148.66
2022-09-03T10:51:24.513Z,101146.16
2022-09-03T10:54:34.444Z,101145.41
2022-09-03T10:57:28.510Z,101149.91
2022-09-03T11:00:14.592Z,101155.19
2022-09-03T11:03:07.661Z,101156.00
2022-09-03T11:05:43.768Z,101157.94
2022-09-03T11:08:29.628Z,101150.88
2022-09-03T11:11:28.990Z,101142.03
2022-09-03T11:14:14.935Z,101148.31
2022-09-03T11:17:02.434Z,101152.72
2022-09-03T11:19:52.156Z,101149.19
2022-09-03T11:22:24.349Z,101150.13
2022-09-03T11:25:00.679Z,101150.22
2022-09-03T11:27:44.189Z,101145.09
2022-09-03T11:30:24.839Z,101146.09
2022-09-03T11:33:16.634Z,101157.88
2022-09-03T11:35:45.309Z,101156.16
2022-09-03T11:38:17.629Z,101150.06
2022-09-03T11:41:15.550Z,101151.88
2022-09-03T11:43:45.319Z,101148.44
2022-09-03T11:46:23.278Z,101152.06
2022-09-03T11:48:53.629Z,101141.50
2022-09-03T11:51:38.749Z,101149.50
2022-09-03T11:54:21.949Z,101150.28
2022-09-03T11:56:51.709Z,101159.25
2022-09-03T11:59:25.789Z,101153.06
2022-09-03T12:02:14.077Z,101153.19
2022-09-03T12:04:46.255Z,101159.56
2022-09-03T12:07:35.709Z,101158.75
2022-09-03T12:10:10.005Z,101157.13
2022-09-03T12:12:48.134Z,101152.75
2022-09-03T12:15:34.935Z,101146.53
2022-09-03T12:18:21.636Z,101148.34
2022-09-03T12:21:11.869Z,101151.16
2022-09-03T12:23:47.230Z,101139.78
2022-09-03T12:26:25.790Z,101148.66
2022-09-03T12:29:03.880Z,101145.13
2022-09-03T12:31:47.975Z,101154.00
2022-09-03T12:34:19.083Z,101148.78
2022-09-03T12:36:55.639Z,101143.44
2022-09-03T12:42:27.393Z,101138.19
2022-09-03T12:44:56.517Z,101151.53
2022-09-03T12:47:35.964Z,101150.72
2022-09-03T12:50:14.110Z,101145.47
2022-09-03T12:53:17.476Z,101151.91
2022-09-03T12:55:52.492Z,101150.25
2022-09-03T12:58:52.184Z,101151.13
2022-09-03T13:01:33.924Z,101154.56
2022-09-03T13:04:21.149Z,101151.91
2022-09-03T13:07:01.989Z,101161.59
2022-09-03T13:09:33.414Z,101165.91
2022-09-03T13:12:06.055Z,101157.03
2022-09-03T13:14:52.658Z,101162.47
2022-09-03T13:17:31.550Z,101165.13
2022-09-03T13:20:36.349Z,101169.63
2022-09-03T13:23:29.309Z,101166.06
2022-09-03T13:26:19.871Z,101167.81
2022-09-03T13:28:59.391Z,101162.38
2022-09-03T13:31:40.036Z,101160.72
2022-09-03T13:34:24.314Z,101164.47
2022-09-03T13:37:02.109Z,101166.34
2022-09-03T13:39:53.684Z,101168.22
2022-09-03T13:42:47.091Z,101162.16
2022-09-03T13:45:54.096Z,101164.91
2022-09-03T13:48:52.029Z,101165.06
2022-09-03T13:51:40.351Z,101170.34
2022-09-03T13:54:50.754Z,101173.88
2022-09-03T13:57:39.544Z,101181.81
2022-09-03T14:00:14.714Z,101175.44
2022-09-03T14:02:52.831Z,101187.03
2022-09-03T14:05:39.390Z,101180.84
2022-09-03T14:08:33.790Z,101186.13
2022-09-03T14:11:28.189Z,101192.38
2022-09-03T14:14:14.910Z,101179.78
2022-09-03T14:16:58.003Z,101185.88
2022-09-03T14:19:45.060Z,101189.19
2022-09-03T14:22:56.509Z,101183.69
2022-09-03T14:25:29.255Z,101196.84
2022-09-03T14:28:30.257Z,101189.50
2022-09-03T14:31:01.590Z,101204.38
2022-09-03T14:33:40.641Z,101207.72
2022-09-03T14:36:23.606Z,101200.34
2022-09-03T14:39:30.844Z,101193.69
2022-09-03T14:42:22.434Z,101202.19
2022-09-03T14:45:19.873Z,101198.22
2022-09-03T14:47:54.232Z,101205.81
2022-09-03T14:50:44.510Z,101202.53
2022-09-03T14:53:28.202Z,101216.22
2022-09-03T14:56:25.280Z,101215.47
2022-09-03T14:59:15.737Z,101224.69
2022-09-03T15:01:49.326Z,101217.84
2022-09-03T15:04:48.499Z,101221.56
2022-09-03T15:07:48.976Z,101222.47
2022-09-03T15:10:45.019Z,101223.50
2022-09-03T15:13:19.859Z,101221.06
2022-09-03T15:16:03.397Z,101215.91
2022-09-03T15:19:16.836Z,101215.06
2022-09-03T15:22:10.606Z,101217.88
2022-09-03T15:24:57.513Z,101218.13
2022-09-03T15:27:28.627Z,101218.56
2022-09-03T15:30:06.931Z,101212.69
2022-09-03T15:32:50.111Z,101217.44
2022-09-03T15:35:46.910Z,101216.00
2022-09-03T15:38:35.556Z,101208.38
2022-09-03T15:41:29.430Z,101202.63
2022-09-03T15:44:02.341Z,101200.38
2022-09-03T15:46:57.791Z,101195.44
2022-09-03T15:49:57.150Z,101200.91
2022-09-03T15:52:34.592Z,101201.22
2022-09-03T15:55:16.151Z,101192.72
2022-09-03T15:58:20.866Z,101191.31
2022-09-03T16:01:13.320Z,101194.13
2022-09-03T16:04:00.572Z,101194.44
2022-09-03T16:07:12.992Z,101194.81
2022-09-03T16:10:24.288Z,101190.53
2022-09-03T16:13:26.406Z,101185.44
2022-09-03T16:16:25.524Z,101187.31
2022-09-03T16:19:25.556Z,101189.34
2022-09-03T16:22:02.431Z,101184.44
2022-09-03T16:24:58.401Z,101190.19
2022-09-03T16:27:34.431Z,101182.69
2022-09-03T16:30:05.311Z,101194.63
2022-09-03T16:32:40.830Z,101194.88
2022-09-03T16:35:33.311Z,101205.16
2022-09-03T16:38:01.794Z,101199.25
2022-09-03T16:41:04.844Z,101210.28
2022-09-03T16:44:05.318Z,101211.97
2022-09-03T16:47:01.897Z,101217.38
2022-09-03T16:49:49.311Z,101223.84
2022-09-03T16:52:37.798Z,101213.94
2022-09-03T16:55:23.711Z,101207.88
2022-09-03T16:58:24.356Z,101202.84
2022-09-03T17:01:11.174Z,101210.28
2022-09-03T17:03:49.311Z,101207.94
2022-09-03T17:06:50.110Z,101211.81
2022-09-03T17:09:31.875Z,101208.47
2022-09-03T17:12:18.596Z,101207.03
2022-09-03T17:15:23.716Z,101203.41
2022-09-03T17:18:03.986Z,101202.53
2022-09-03T17:20:52.991Z,101200.63
2022-09-03T17:23:31.397Z,101200.28
2022-09-03T17:26:12.853Z,101193.19
2022-09-03T17:28:56.350Z,101189.81
2022-09-03T17:31:52.678Z,101187.38
2022-09-03T17:34:42.270Z,101187.31
2022-09-03T17:37:39.671Z,101187.09
2022-09-03T17:40:33.960Z,101182.75
2022-09-03T17:43:28.186Z,101187.84
2022-09-03T17:46:12.156Z,101195.63
2022-09-03T17:49:00.965Z,101196.63
2022-09-03T17:51:38.375Z,101188.50
2022-09-03T17:54:14.270Z,101195.78
2022-09-03T17:56:57.790Z,101193.19
2022-09-03T17:59:49.304Z,101194.81
2022-09-03T18:02:18.111Z,101193.94
2022-09-03T18:05:04.357Z,101190.22
2022-09-03T18:07:56.375Z,101188.19
2022-09-03T18:10:42.875Z,101191.84
2022-09-03T18:13:37.696Z,101189.06
2022-09-03T18:16:06.613Z,101197.03
2022-09-03T18:18:38.154Z,101192.16
2022-09-03T18:21:31.898Z,101183.22
2022-09-03T18:24:29.091Z,101175.53
2022-09-03T18:27:21.695Z,101170.31
2022-09-03T18:30:22.575Z,101178.75
2022-09-03T18:33:09.470Z,101174.41
2022-09-03T18:35:57.129Z,101168.69
2022-09-03T18:38:47.462Z,101174.72
2022-09-03T18:42:00.675Z,101170.50
2022-09-03T18:45:06.632Z,101170.13
2022-09-03T18:48:21.358Z,101168.44
2022-09-03T18:51:32.980Z,101163.00
2022-09-03T18:55:04.262Z,101158.47
2022-09-03T18:58:18.810Z,101160.47
2022-09-03T19:01:51.919Z,101163.19
2022-09-03T19:05:13.934Z,101164.91
2022-09-03T19:08:40.836Z,101160.00
2022-09-03T19:11:50.218Z,101154.56
2022-09-03T19:15:09.665Z,101148.81
2022-09-03T19:18:17.580Z,101139.59
2022-09-03T19:21:31.780Z,101132.06
2022-09-03T19:24:21.219Z,101126.41
2022-09-03T19:27:45.916Z,101124.34
2022-09-03T19:30:43.904Z,101128.50
2022-09-03T19:34:16.473Z,101118.78
2022-09-03T19:37:29.315Z,101120.59
2022-09-03T19:40:28.831Z,101113.84
2022-09-03T19:43:53.780Z,101113.03
2022-09-03T19:46:46.270Z,101112.47
2022-09-03T19:49:42.198Z,101104.16
2022-09-03T19:52:39.651Z,101102.50
2022-09-03T19:55:28.938Z,101100.38
2022-09-03T19:58:39.540Z,101098.50
2022-09-03T20:01:29.290Z,101087.97
2022-09-03T20:04:20.349Z,101089.97
2022-09-03T20:07:07.479Z,101096.69
2022-09-03T20:09:59.350Z,101093.97
2022-09-03T20:12:35.195Z,101089.78
2022-09-03T20:15:08.830Z,101086.75
2022-09-03T20:17:37.320Z,101084.53
2022-09-03T20:20:35.711Z,101082.31
2022-09-03T20:23:34.872Z,101081.13
2022-09-03T20:26:14.910Z,101084.25
2022-09-03T20:29:02.126Z,101080.50
2022-09-03T20:31:51.950Z,101074.19
2022-09-03T20:34:54.959Z,101072.66
2022-09-03T20:37:42.590Z,101066.56
2022-09-03T20:40:43.799Z,101066.22
2022-09-03T20:43:21.100Z,101068.09
2022-09-03T20:46:07.741Z,101061.41
2022-09-03T20:49:23.069Z,101060.94
2022-09-03T20:52:04.990Z,101055.59
2022-09-03T20:54:49.314Z,101056.28
2022-09-03T20:57:35.829Z,101046.03
2022-09-03T21:00:19.551Z,101048.06
2022-09-03T21:03:16.487Z,101046.06
2022-09-03T21:05:59.670Z,101046.38
2022-09-03T21:08:47.210Z,101047.38
2022-09-03T21:11:37.141Z,101049.44
2022-09-03T21:14:46.859Z,101047.50
2022-09-03T21:17:30.749Z,101040.00
2022-09-03T21:20:09.414Z,101029.31
2022-09-03T21:22:53.685Z,101036.50
2022-09-03T21:25:28.190Z,101033.75
2022-09-03T21:28:03.071Z,101028.78
2022-09-03T21:30:35.733Z,101031.94
2022-09-03T21:33:15.635Z,101019.22
2022-09-03T21:35:50.580Z,101021.91
2022-09-03T21:38:23.890Z,101012.03
2022-09-03T21:41:32.734Z,101017.72
2022-09-03T21:44:20.445Z,101012.63
2022-09-03T21:46:58.427Z,101011.66
2022-09-03T21:49:56.477Z,101011.09
2022-09-03T21:52:48.956Z,101006.63
2022-09-03T21:55:47.727Z,101008.34
2022-09-03T21:58:18.871Z,101011.84
2022-09-03T22:00:49.482Z,101011.28
2022-09-03T22:03:19.030Z,101007.09
2022-09-03T22:05:50.450Z,101002.56
2022-09-03T22:08:31.334Z,101000.66
2022-09-03T22:11:36.570Z,101000.66
2022-09-03T22:14:16.315Z,101007.78
2022-09-03T22:16:53.546Z,100994.41
2022-09-03T22:19:22.110Z,100995.94
2022-09-03T22:22:03.880Z,100990.50
2022-09-03T22:24:50.715Z,100994.22
2022-09-03T22:27:41.951Z,100997.44
2022-09-03T22:30:20.119Z,100993.84
2022-09-03T22:32:58.114Z,100989.84
2022-09-03T22:35:32.850Z,100994.91
2022-09-03T22:38:25.594Z,100996.19
2022-09-03T22:41:23.865Z,100993.41
2022-09-03T22:44:08.425Z,100986.47
2022-09-03T22:47:07.020Z,100999.13
2022-09-03T22:49:47.034Z,100990.63
2022-09-03T22:52:39.371Z,100980.28
2022-09-03T22:55:14.435Z,100988.97
2022-09-03T22:58:08.245Z,100987.72
2022-09-03T23:00:43.710Z,100984.84
2022-09-03T23:03:35.213Z,100989.53
2022-09-03T23:06:14.437Z,100985.16
2022-09-03T23:08:50.880Z,100980.69
2022-09-03T23:11:33.304Z,100982.78
2022-09-03T23:14:13.475Z,100973.34
2022-09-03T23:17:12.354Z,100977.25
2022-09-03T23:19:53.871Z,100968.38
2022-09-03T23:22:52.651Z,100972.66
2022-09-03T23:25:30.075Z,100968.88
2022-09-03T23:28:44.024Z,100976.53
2022-09-03T23:31:28.224Z,100980.03
2022-09-03T23:33:57.156Z,100978.09
2022-09-03T23:36:51.106Z,100979.72
2022-09-03T23:39:15.752Z,100968.69
2022-09-03T23:42:10.439Z,100989.13
2022-09-03T23:44:59.969Z,100984.97
2022-09-03T23:47:54.524Z,100989.09
2022-09-03T23:50:32.790Z,100981.19
2022-09-03T23:53:24.194Z,100981.47
2022-09-03T23:55:58.620Z,100979.47
